sensor_id;sensor_type;location;lat;lon;timestamp;pressure;altitude;pressure_sealevel;temperature;humidity
62038;BME280;47991;42.974;12.082;2024-03-17T00:00:00;98282.73;;;7.22;93.27
62038;BME280;47991;42.974;12.082;2024-03-17T00:02:29;98287.46;;;7.22;93.42
62038;BME280;47991;42.974;12.082;2024-03-17T00:04:56;98285.00;;;7.25;93.28
62038;BME280;47991;42.974;12.082;2024-03-17T00:07:23;98284.11;;;7.26;93.06
62038;BME280;47991;42.974;12.082;2024-03-17T00:09:50;98285.52;;;7.25;93.11
62038;BME280;47991;42.974;12.082;2024-03-17T00:12:17;98284.46;;;7.25;93.55
62038;BME280;47991;42.974;12.082;2024-03-17T00:14:46;98281.30;;;7.25;93.38
62038;BME280;47991;42.974;12.082;2024-03-17T00:17:14;98279.21;;;7.21;93.37
62038;BME280;47991;42.974;12.082;2024-03-17T00:19:42;98283.98;;;7.17;93.63
62038;BME280;47991;42.974;12.082;2024-03-17T00:22:09;98284.01;;;7.15;93.26
62038;BME280;47991;42.974;12.082;2024-03-17T00:24:40;98286.51;;;7.08;93.30
62038;BME280;47991;42.974;12.082;2024-03-17T00:27:10;98285.98;;;7.05;93.57
62038;BME280;47991;42.974;12.082;2024-03-17T00:29:38;98287.26;;;7.01;93.63
62038;BME280;47991;42.974;12.082;2024-03-17T00:32:06;98286.41;;;6.95;93.21
62038;BME280;47991;42.974;12.082;2024-03-17T00:34:33;98285.39;;;6.87;93.36
62038;BME280;47991;42.974;12.082;2024-03-17T00:37:01;98284.37;;;6.83;93.98
62038;BME280;47991;42.974;12.082;2024-03-17T00:39:29;98286.84;;;6.82;93.84
62038;BME280;47991;42.974;12.082;2024-03-17T00:41:57;98289.30;;;6.80;93.95
62038;BME280;47991;42.974;12.082;2024-03-17T00:44:24;98284.54;;;6.83;94.61
62038;BME280;47991;42.974;12.082;2024-03-17T00:46:51;98279.24;;;6.87;93.78
62038;BME280;47991;42.974;12.082;2024-03-17T00:49:19;98279.62;;;6.83;93.86
62038;BME280;47991;42.974;12.082;2024-03-17T00:51:46;98274.34;;;6.83;94.52
62038;BME280;47991;42.974;12.082;2024-03-17T00:54:14;98271.38;;;6.82;94.37
62038;BME280;47991;42.974;12.082;2024-03-17T00:56:41;98274.52;;;6.83;94.13
62038;BME280;47991;42.974;12.082;2024-03-17T00:59:09;98279.44;;;6.82;94.02
62038;BME280;47991;42.974;12.082;2024-03-17T01:01:36;98277.54;;;6.75;94.15
62038;BME280;47991;42.974;12.082;2024-03-17T01:04:04;98278.42;;;6.75;94.76
62038;BME280;47991;42.974;12.082;2024-03-17T01:06:32;98275.80;;;6.73;95.03
62038;BME280;47991;42.974;12.082;2024-03-17T01:08:59;98275.63;;;6.73;95.30
62038;BME280;47991;42.974;12.082;2024-03-17T01:11:26;98273.37;;;6.69;95.48
62038;BME280;47991;42.974;12.082;2024-03-17T01:13:54;98270.92;;;6.66;95.68
62038;BME280;47991;42.974;12.082;2024-03-17T01:16:21;98273.02;;;6.66;95.20
62038;BME280;47991;42.974;12.082;2024-03-17T01:18:49;98273.89;;;6.68;95.45
62038;BME280;47991;42.974;12.082;2024-03-17T01:21:16;98274.76;;;6.70;96.36
62038;BME280;47991;42.974;12.082;2024-03-17T01:23:44;98267.58;;;6.69;96.70
62038;BME280;47991;42.974;12.082;2024-03-17T01:26:11;98268.79;;;6.69;95.77
62038;BME280;47991;42.974;12.082;2024-03-17T01:28:38;98268.28;;;6.66;96.58
62038;BME280;47991;42.974;12.082;2024-03-17T01:31:08;98268.31;;;6.60;95.94
62038;BME280;47991;42.974;12.082;2024-03-17T01:33:36;98268.31;;;6.59;95.67
62038;BME280;47991;42.974;12.082;2024-03-17T01:36:03;98265.67;;;6.58;95.85
62038;BME280;47991;42.974;12.082;2024-03-17T01:38:31;98264.08;;;6.59;95.58
62038;BME280;47991;42.974;12.082;2024-03-17T01:40:59;98265.15;;;6.60;95.65
62038;BME280;47991;42.974;12.082;2024-03-17T01:43:26;98269.54;;;6.59;96.04
62038;BME280;47991;42.974;12.082;2024-03-17T01:45:53;98275.86;;;6.59;95.50
62038;BME280;47991;42.974;12.082;2024-03-17T01:48:21;98278.84;;;6.61;95.67
62038;BME280;47991;42.974;12.082;2024-03-17T01:50:51;98275.85;;;6.60;95.15
62038;BME280;47991;42.974;12.082;2024-03-17T01:53:19;98280.43;;;6.59;95.63
62038;BME280;47991;42.974;12.082;2024-03-17T01:55:48;98280.09;;;6.58;95.83
62038;BME280;47991;42.974;12.082;2024-03-17T01:58:15;98283.08;;;6.56;95.23
62038;BME280;47991;42.974;12.082;2024-03-17T02:00:44;98278.71;;;6.51;95.30
62038;BME280;47991;42.974;12.082;2024-03-17T02:03:12;98283.83;;;6.43;95.07
62038;BME280;47991;42.974;12.082;2024-03-17T02:05:39;98280.00;;;6.32;95.02
62038;BME280;47991;42.974;12.082;2024-03-17T02:08:07;98276.34;;;6.23;95.26
62038;BME280;47991;42.974;12.082;2024-03-17T02:10:35;98271.61;;;6.18;95.81
62038;BME280;47991;42.974;12.082;2024-03-17T02:13:02;98272.85;;;6.17;96.22
62038;BME280;47991;42.974;12.082;2024-03-17T02:15:30;98268.96;;;6.21;96.75
62038;BME280;47991;42.974;12.082;2024-03-17T02:17:58;98268.77;;;6.27;96.43
62038;BME280;47991;42.974;12.082;2024-03-17T02:20:25;98263.67;;;6.31;96.76
62038;BME280;47991;42.974;12.082;2024-03-17T02:23:13;98259.10;;;6.37;96.72
62038;BME280;47991;42.974;12.082;2024-03-17T02:25:40;98255.22;;;6.39;95.97
62038;BME280;47991;42.974;12.082;2024-03-17T02:28:07;98254.15;;;6.37;95.68
62038;BME280;47991;42.974;12.082;2024-03-17T02:30:34;98255.77;;;6.31;95.33
62038;BME280;47991;42.974;12.082;2024-03-17T02:33:02;98254.23;;;6.19;94.97
62038;BME280;47991;42.974;12.082;2024-03-17T02:35:30;98254.44;;;6.07;95.23
62038;BME280;47991;42.974;12.082;2024-03-17T02:37:57;98250.77;;;5.98;95.74
62038;BME280;47991;42.974;12.082;2024-03-17T02:40:24;98250.23;;;5.93;95.73
62038;BME280;47991;42.974;12.082;2024-03-17T02:42:51;98247.61;;;5.88;95.61
62038;BME280;47991;42.974;12.082;2024-03-17T02:45:19;98247.95;;;5.90;96.06
62038;BME280;47991;42.974;12.082;2024-03-17T02:47:47;98250.58;;;5.95;96.38
62038;BME280;47991;42.974;12.082;2024-03-17T02:50:16;98248.83;;;5.92;95.40
62038;BME280;47991;42.974;12.082;2024-03-17T02:52:43;98249.38;;;5.82;95.36
62038;BME280;47991;42.974;12.082;2024-03-17T02:55:10;98251.66;;;5.76;95.34
62038;BME280;47991;42.974;12.082;2024-03-17T02:57:38;98252.20;;;5.68;95.61
62038;BME280;47991;42.974;12.082;2024-03-17T03:00:06;98251.33;;;5.63;95.92
62038;BME280;47991;42.974;12.082;2024-03-17T03:02:35;98252.02;;;5.61;95.95
62038;BME280;47991;42.974;12.082;2024-03-17T03:05:03;98249.22;;;5.62;96.18
62038;BME280;47991;42.974;12.082;2024-03-17T03:07:30;98248.70;;;5.63;96.01
62038;BME280;47991;42.974;12.082;2024-03-17T03:09:57;98248.52;;;5.63;95.81
62038;BME280;47991;42.974;12.082;2024-03-17T03:12:25;98245.36;;;5.64;95.70
62038;BME280;47991;42.974;12.082;2024-03-17T03:14:52;98248.34;;;5.61;95.66
62038;BME280;47991;42.974;12.082;2024-03-17T03:17:20;98247.46;;;5.65;97.16
62038;BME280;47991;42.974;12.082;2024-03-17T03:19:47;98247.10;;;5.69;96.44
62038;BME280;47991;42.974;12.082;2024-03-17T03:22:14;98247.11;;;5.72;96.06
62038;BME280;47991;42.974;12.082;2024-03-17T03:24:41;98246.40;;;5.71;95.65
62038;BME280;47991;42.974;12.082;2024-03-17T03:27:09;98252.73;;;5.66;95.66
62038;BME280;47991;42.974;12.082;2024-03-17T03:29:36;98259.58;;;5.59;95.41
62038;BME280;47991;42.974;12.082;2024-03-17T03:32:04;98260.63;;;5.59;95.86
62038;BME280;47991;42.974;12.082;2024-03-17T03:34:31;98260.10;;;5.60;96.58
62038;BME280;47991;42.974;12.082;2024-03-17T03:36:58;98263.08;;;5.64;96.65
62038;BME280;47991;42.974;12.082;2024-03-17T03:39:26;98268.88;;;5.66;96.51
62038;BME280;47991;42.974;12.082;2024-03-17T03:41:58;98270.80;;;5.65;96.36
62038;BME280;47991;42.974;12.082;2024-03-17T03:44:25;98276.76;;;5.62;96.83
62038;BME280;47991;42.974;12.082;2024-03-17T03:46:52;98278.17;;;5.57;96.10
62038;BME280;47991;42.974;12.082;2024-03-17T03:49:23;98281.66;;;5.56;96.61
62038;BME280;47991;42.974;12.082;2024-03-17T03:51:50;98284.30;;;5.63;96.79
62038;BME280;47991;42.974;12.082;2024-03-17T03:54:17;98287.80;;;5.66;96.44
62038;BME280;47991;42.974;12.082;2024-03-17T03:56:44;98291.85;;;5.59;95.88
62038;BME280;47991;42.974;12.082;2024-03-17T03:59:12;98294.12;;;5.56;95.85
62038;BME280;47991;42.974;12.082;2024-03-17T04:01:38;98296.75;;;5.47;95.93
62038;BME280;47991;42.974;12.082;2024-03-17T04:04:06;98297.45;;;5.45;97.07
62038;BME280;47991;42.974;12.082;2024-03-17T04:06:33;98298.67;;;5.46;96.83
62038;BME280;47991;42.974;12.082;2024-03-17T04:09:00;98295.17;;;5.44;96.82
62038;BME280;47991;42.974;12.082;2024-03-17T04:11:27;98295.00;;;5.44;97.24
62038;BME280;47991;42.974;12.082;2024-03-17T04:13:54;98290.27;;;5.47;97.04
62038;BME280;47991;42.974;12.082;2024-03-17T04:16:23;98287.64;;;5.47;97.77
62038;BME280;47991;42.974;12.082;2024-03-17T04:18:50;98281.32;;;5.50;97.70
62038;BME280;47991;42.974;12.082;2024-03-17T04:21:17;98275.54;;;5.56;97.96
62038;BME280;47991;42.974;12.082;2024-03-17T04:23:44;98274.48;;;5.66;98.54
62038;BME280;47991;42.974;12.082;2024-03-17T04:26:11;98272.36;;;5.79;98.98
62038;BME280;47991;42.974;12.082;2024-03-17T04:28:39;98275.51;;;5.92;99.62
62038;BME280;47991;42.974;12.082;2024-03-17T04:31:07;98281.31;;;6.04;99.73
62038;BME280;47991;42.974;12.082;2024-03-17T04:33:35;98287.42;;;6.14;99.65
62038;BME280;47991;42.974;12.082;2024-03-17T04:36:03;98287.45;;;5.94;100.00
62038;BME280;47991;42.974;12.082;2024-03-17T04:38:30;98290.79;;;5.77;100.00
62038;BME280;47991;42.974;12.082;2024-03-17T04:40:57;98298.34;;;5.76;100.00
62038;BME280;47991;42.974;12.082;2024-03-17T04:43:36;98296.58;;;5.74;100.00
62038;BME280;47991;42.974;12.082;2024-03-17T04:46:04;98298.16;;;5.70;100.00
62038;BME280;47991;42.974;12.082;2024-03-17T04:48:33;98296.22;;;5.65;100.00
62038;BME280;47991;42.974;12.082;2024-03-17T04:51:00;98300.27;;;5.66;100.00
62038;BME280;47991;42.974;12.082;2024-03-17T04:53:28;98305.53;;;5.67;100.00
62038;BME280;47991;42.974;12.082;2024-03-17T04:58:27;98308.49;;;5.73;100.00
62038;BME280;47991;42.974;12.082;2024-03-17T05:00:54;98307.64;;;5.76;100.00
62038;BME280;47991;42.974;12.082;2024-03-17T05:03:21;98312.54;;;5.76;99.96
62038;BME280;47991;42.974;12.082;2024-03-17T05:05:48;98317.29;;;5.77;100.00
62038;BME280;47991;42.974;12.082;2024-03-17T05:08:28;98322.36;;;5.81;100.00
62038;BME280;47991;42.974;12.082;2024-03-17T05:10:57;98322.01;;;5.87;100.00
62038;BME280;47991;42.974;12.082;2024-03-17T05:13:28;98320.24;;;5.92;99.96
62038;BME280;47991;42.974;12.082;2024-03-17T05:15:55;98321.13;;;5.92;99.95
62038;BME280;47991;42.974;12.082;2024-03-17T05:18:23;98324.65;;;5.91;99.55
62038;BME280;47991;42.974;12.082;2024-03-17T05:21:03;98325.87;;;5.86;99.38
62038;BME280;47991;42.974;12.082;2024-03-17T05:23:31;98332.71;;;5.83;99.84
62038;BME280;47991;42.974;12.082;2024-03-17T05:26:00;98333.23;;;5.84;99.67
62038;BME280;47991;42.974;12.082;2024-03-17T05:28:29;98340.42;;;5.86;99.77
62038;BME280;47991;42.974;12.082;2024-03-17T05:30:56;98343.42;;;5.92;99.68
62038;BME280;47991;42.974;12.082;2024-03-17T05:33:25;98346.23;;;5.95;99.88
62038;BME280;47991;42.974;12.082;2024-03-17T05:35:57;98340.98;;;6.00;99.65
62038;BME280;47991;42.974;12.082;2024-03-17T05:38:26;98341.88;;;5.99;99.56
62038;BME280;47991;42.974;12.082;2024-03-17T05:40:58;98338.70;;;5.96;99.36
62038;BME280;47991;42.974;12.082;2024-03-17T05:43:30;98339.75;;;5.97;99.57
62038;BME280;47991;42.974;12.082;2024-03-17T05:45:58;98343.63;;;5.96;99.68
62038;BME280;47991;42.974;12.082;2024-03-17T05:48:26;98356.77;;;6.02;99.68
62038;BME280;47991;42.974;12.082;2024-03-17T05:50:54;98356.08;;;6.09;99.65
62038;BME280;47991;42.974;12.082;2024-03-17T05:53:22;98360.29;;;6.13;99.62
62038;BME280;47991;42.974;12.082;2024-03-17T05:55:50;98357.48;;;6.14;99.85
62038;BME280;47991;42.974;12.082;2024-03-17T05:58:17;98357.30;;;6.11;100.00
62038;BME280;47991;42.974;12.082;2024-03-17T06:00:44;98355.88;;;6.16;100.00
62038;BME280;47991;42.974;12.082;2024-03-17T06:03:12;98353.23;;;6.23;100.00
62038;BME280;47991;42.974;12.082;2024-03-17T06:05:40;98353.06;;;6.27;100.00
62038;BME280;47991;42.974;12.082;2024-03-17T06:08:10;98357.44;;;6.33;100.00
62038;BME280;47991;42.974;12.082;2024-03-17T06:10:43;98357.59;;;6.42;100.00
62038;BME280;47991;42.974;12.082;2024-03-17T06:13:11;98359.52;;;6.44;100.00
62038;BME280;47991;42.974;12.082;2024-03-17T06:15:44;98359.70;;;6.43;100.00
62038;BME280;47991;42.974;12.082;2024-03-17T06:18:14;98359.00;;;6.44;100.00
62038;BME280;47991;42.974;12.082;2024-03-17T06:20:45;98365.85;;;6.46;100.00
62038;BME280;47991;42.974;12.082;2024-03-17T06:23:14;98371.80;;;6.52;100.00
62038;BME280;47991;42.974;12.082;2024-03-17T06:25:44;98380.91;;;6.63;100.00
62038;BME280;47991;42.974;12.082;2024-03-17T06:28:14;98379.98;;;6.75;100.00
62038;BME280;47991;42.974;12.082;2024-03-17T06:30:45;98386.11;;;6.81;100.00
62038;BME280;47991;42.974;12.082;2024-03-17T06:33:17;98385.38;;;6.91;100.00
62038;BME280;47991;42.974;12.082;2024-03-17T06:35:47;98385.69;;;7.03;100.00
62038;BME280;47991;42.974;12.082;2024-03-17T06:38:15;98389.73;;;7.05;100.00
62038;BME280;47991;42.974;12.082;2024-03-17T06:40:50;98387.27;;;7.02;100.00
62038;BME280;47991;42.974;12.082;2024-03-17T06:43:19;98394.63;;;7.10;100.00
62038;BME280;47991;42.974;12.082;2024-03-17T06:46:07;98392.46;;;7.20;100.00
62038;BME280;47991;42.974;12.082;2024-03-17T06:48:35;98386.37;;;7.42;100.00
62038;BME280;47991;42.974;12.082;2024-03-17T06:51:02;98382.95;;;7.81;100.00
62038;BME280;47991;42.974;12.082;2024-03-17T06:53:30;98386.45;;;8.26;100.00
62038;BME280;47991;42.974;12.082;2024-03-17T06:55:58;98389.73;;;8.55;100.00
62038;BME280;47991;42.974;12.082;2024-03-17T06:58:27;98389.19;;;8.56;99.96
62038;BME280;47991;42.974;12.082;2024-03-17T07:00:57;98385.79;;;8.62;100.00
62038;BME280;47991;42.974;12.082;2024-03-17T07:03:28;98387.08;;;8.73;100.00
62038;BME280;47991;42.974;12.082;2024-03-17T07:05:56;98391.76;;;8.95;100.00
62038;BME280;47991;42.974;12.082;2024-03-17T07:08:24;98391.08;;;9.07;99.95
62038;BME280;47991;42.974;12.082;2024-03-17T07:11:06;98395.02;;;9.18;99.82
62038;BME280;47991;42.974;12.082;2024-03-17T07:13:36;98391.58;;;9.24;99.48
62038;BME280;47991;42.974;12.082;2024-03-17T07:16:05;98392.00;;;9.32;99.55
62038;BME280;47991;42.974;12.082;2024-03-17T07:18:33;98398.52;;;9.32;99.25
62038;BME280;47991;42.974;12.082;2024-03-17T07:21:02;98404.17;;;9.32;99.08
62038;BME280;47991;42.974;12.082;2024-03-17T07:23:33;98406.39;;;9.25;99.23
62038;BME280;47991;42.974;12.082;2024-03-17T07:26:01;98411.58;;;9.18;99.71
62038;BME280;47991;42.974;12.082;2024-03-17T07:28:29;98412.58;;;9.09;100.00
62038;BME280;47991;42.974;12.082;2024-03-17T07:30:58;98417.14;;;8.96;100.00
62038;BME280;47991;42.974;12.082;2024-03-17T07:33:27;98418.21;;;8.95;100.00
62038;BME280;47991;42.974;12.082;2024-03-17T07:35:56;98419.96;;;8.95;100.00
62038;BME280;47991;42.974;12.082;2024-03-17T07:38:30;98423.09;;;9.00;100.00
62038;BME280;47991;42.974;12.082;2024-03-17T07:43:28;98425.70;;;9.33;100.00
62038;BME280;47991;42.974;12.082;2024-03-17T07:48:32;98421.70;;;9.27;100.00
62038;BME280;47991;42.974;12.082;2024-03-17T07:51:01;98425.03;;;9.14;100.00
62038;BME280;47991;42.974;12.082;2024-03-17T07:53:33;98425.23;;;9.13;100.00
62038;BME280;47991;42.974;12.082;2024-03-17T07:56:11;98422.86;;;9.20;100.00
62038;BME280;47991;42.974;12.082;2024-03-17T07:58:40;98427.29;;;9.31;100.00
62038;BME280;47991;42.974;12.082;2024-03-17T08:01:12;98427.48;;;9.31;100.00
62038;BME280;47991;42.974;12.082;2024-03-17T08:03:41;98428.95;;;9.26;100.00
62038;BME280;47991;42.974;12.082;2024-03-17T08:06:12;98430.25;;;9.35;100.00
62038;BME280;47991;42.974;12.082;2024-03-17T08:08:39;98430.40;;;9.50;100.00
62038;BME280;47991;42.974;12.082;2024-03-17T08:11:06;98426.59;;;9.59;100.00
62038;BME280;47991;42.974;12.082;2024-03-17T08:13:33;98425.32;;;9.47;100.00
62038;BME280;47991;42.974;12.082;2024-03-17T08:16:04;98423.05;;;9.45;100.00
62038;BME280;47991;42.974;12.082;2024-03-17T08:18:36;98422.15;;;9.48;100.00
62038;BME280;47991;42.974;12.082;2024-03-17T08:21:04;98423.70;;;9.37;100.00
62038;BME280;47991;42.974;12.082;2024-03-17T08:23:33;98428.13;;;9.35;100.00
62038;BME280;47991;42.974;12.082;2024-03-17T08:26:03;98431.90;;;9.45;100.00
62038;BME280;47991;42.974;12.082;2024-03-17T08:28:30;98428.45;;;9.52;100.00
62038;BME280;47991;42.974;12.082;2024-03-17T08:30:59;98428.73;;;9.69;100.00
62038;BME280;47991;42.974;12.082;2024-03-17T08:33:27;98431.21;;;9.69;100.00
62038;BME280;47991;42.974;12.082;2024-03-17T08:35:57;98431.72;;;9.70;100.00
62038;BME280;47991;42.974;12.082;2024-03-17T08:38:25;98427.25;;;9.74;100.00
62038;BME280;47991;42.974;12.082;2024-03-17T08:40:55;98427.89;;;9.91;100.00
62038;BME280;47991;42.974;12.082;2024-03-17T08:43:23;98424.74;;;10.12;100.00
62038;BME280;47991;42.974;12.082;2024-03-17T08:45:58;98424.24;;;10.09;100.00
62038;BME280;47991;42.974;12.082;2024-03-17T08:48:28;98430.68;;;10.05;100.00
62038;BME280;47991;42.974;12.082;2024-03-17T08:50:57;98429.31;;;10.25;100.00
62038;BME280;47991;42.974;12.082;2024-03-17T08:53:26;98425.42;;;10.67;100.00
62038;BME280;47991;42.974;12.082;2024-03-17T08:55:54;98421.84;;;11.15;100.00
62038;BME280;47991;42.974;12.082;2024-03-17T08:58:22;98416.19;;;11.57;99.70
62038;BME280;47991;42.974;12.082;2024-03-17T09:00:49;98409.58;;;11.75;96.71
62038;BME280;47991;42.974;12.082;2024-03-17T09:03:18;98412.16;;;11.95;96.64
62038;BME280;47991;42.974;12.082;2024-03-17T09:05:47;98406.75;;;11.99;94.99
62038;BME280;47991;42.974;12.082;2024-03-17T09:08:22;98406.95;;;12.06;95.61
62038;BME280;47991;42.974;12.082;2024-03-17T09:10:52;98400.39;;;12.28;94.27
62038;BME280;47991;42.974;12.082;2024-03-17T09:13:21;98403.27;;;12.40;93.90
62038;BME280;47991;42.974;12.082;2024-03-17T09:18:21;98399.77;;;12.59;93.90
62038;BME280;47991;42.974;12.082;2024-03-17T09:20:59;98394.88;;;12.70;92.11
62038;BME280;47991;42.974;12.082;2024-03-17T09:23:28;98391.80;;;12.72;92.27
62038;BME280;47991;42.974;12.082;2024-03-17T09:26:04;98390.00;;;12.66;92.59
62038;BME280;47991;42.974;12.082;2024-03-17T09:28:32;98386.77;;;12.54;91.11
62038;BME280;47991;42.974;12.082;2024-03-17T09:31:00;98387.52;;;12.66;91.13
62038;BME280;47991;42.974;12.082;2024-03-17T09:33:29;98391.11;;;12.77;91.75
62038;BME280;47991;42.974;12.082;2024-03-17T09:35:59;98386.58;;;12.88;89.79
62038;BME280;47991;42.974;12.082;2024-03-17T09:38:27;98387.96;;;12.82;90.43
62038;BME280;47991;42.974;12.082;2024-03-17T09:40:55;98384.16;;;12.98;90.45
62038;BME280;47991;42.974;12.082;2024-03-17T09:43:24;98381.31;;;13.11;88.56
62038;BME280;47991;42.974;12.082;2024-03-17T09:45:52;98383.67;;;13.09;89.30
62038;BME280;47991;42.974;12.082;2024-03-17T09:48:24;98380.37;;;13.25;89.22
62038;BME280;47991;42.974;12.082;2024-03-17T09:50:54;98382.56;;;13.54;88.89
62038;BME280;47991;42.974;12.082;2024-03-17T09:53:26;98374.09;;;13.81;88.02
62038;BME280;47991;42.974;12.082;2024-03-17T09:58:35;98373.25;;;13.96;86.45
62038;BME280;47991;42.974;12.082;2024-03-17T10:01:04;98371.11;;;14.18;86.20
62038;BME280;47991;42.974;12.082;2024-03-17T10:03:51;98369.82;;;14.41;85.48
62038;BME280;47991;42.974;12.082;2024-03-17T10:06:20;98368.66;;;14.38;83.81
62038;BME280;47991;42.974;12.082;2024-03-17T10:08:54;98365.35;;;14.36;84.13
62038;BME280;47991;42.974;12.082;2024-03-17T10:11:32;98366.79;;;14.36;83.51
62038;BME280;47991;42.974;12.082;2024-03-17T10:14:04;98366.08;;;14.25;83.40
62038;BME280;47991;42.974;12.082;2024-03-17T10:16:33;98369.09;;;14.26;83.95
62038;BME280;47991;42.974;12.082;2024-03-17T10:21:40;98366.52;;;14.44;83.69
62038;BME280;47991;42.974;12.082;2024-03-17T10:24:08;98363.86;;;14.49;82.71
62038;BME280;47991;42.974;12.082;2024-03-17T10:26:37;98367.05;;;14.70;83.14
62038;BME280;47991;42.974;12.082;2024-03-17T10:31:46;98365.23;;;15.21;79.79
62038;BME280;47991;42.974;12.082;2024-03-17T10:34:15;98361.97;;;15.36;80.31
62038;BME280;47991;42.974;12.082;2024-03-17T10:36:46;98361.44;;;15.40;77.33
62038;BME280;47991;42.974;12.082;2024-03-17T10:39:27;98362.39;;;15.34;79.00
62038;BME280;47991;42.974;12.082;2024-03-17T10:42:00;98354.22;;;15.61;77.16
62038;BME280;47991;42.974;12.082;2024-03-17T10:44:29;98351.88;;;15.71;75.92
62038;BME280;47991;42.974;12.082;2024-03-17T10:46:57;98352.90;;;15.77;77.37
62038;BME280;47991;42.974;12.082;2024-03-17T10:49:29;98350.56;;;15.83;75.86
62038;BME280;47991;42.974;12.082;2024-03-17T10:52:06;98348.47;;;15.77;76.67
62038;BME280;47991;42.974;12.082;2024-03-17T10:54:34;98347.06;;;15.67;76.06
62038;BME280;47991;42.974;12.082;2024-03-17T10:57:35;98347.55;;;15.73;76.21
62038;BME280;47991;42.974;12.082;2024-03-17T11:00:07;98349.17;;;15.91;76.00
62038;BME280;47991;42.974;12.082;2024-03-17T11:02:36;98351.64;;;15.91;74.65
62038;BME280;47991;42.974;12.082;2024-03-17T11:05:05;98351.69;;;16.12;75.48
62038;BME280;47991;42.974;12.082;2024-03-17T11:07:39;98350.70;;;16.27;73.64
62038;BME280;47991;42.974;12.082;2024-03-17T11:10:35;98356.95;;;16.27;72.15
62038;BME280;47991;42.974;12.082;2024-03-17T11:13:05;98356.91;;;16.32;72.21
62038;BME280;47991;42.974;12.082;2024-03-17T11:15:49;98354.61;;;16.40;70.29
62038;BME280;47991;42.974;12.082;2024-03-17T11:23:34;98351.02;;;16.36;70.56
62038;BME280;47991;42.974;12.082;2024-03-17T11:26:05;98343.15;;;16.41;69.81
62038;BME280;47991;42.974;12.082;2024-03-17T11:31:36;98343.30;;;16.46;64.47
62038;BME280;47991;42.974;12.082;2024-03-17T11:34:34;98338.00;;;16.45;64.06
62038;BME280;47991;42.974;12.082;2024-03-17T11:37:03;98334.48;;;16.56;62.26
62038;BME280;47991;42.974;12.082;2024-03-17T11:39:51;98332.86;;;16.73;60.87
62038;BME280;47991;42.974;12.082;2024-03-17T11:42:30;98327.95;;;16.83;59.73
62038;BME280;47991;42.974;12.082;2024-03-17T11:45:10;98321.61;;;16.72;59.63
62038;BME280;47991;42.974;12.082;2024-03-17T11:47:40;98321.48;;;16.79;58.58
62038;BME280;47991;42.974;12.082;2024-03-17T11:50:09;98314.80;;;16.98;58.13
62038;BME280;47991;42.974;12.082;2024-03-17T11:52:38;98311.68;;;17.19;60.71
62038;BME280;47991;42.974;12.082;2024-03-17T11:55:14;98306.02;;;17.37;60.47
62038;BME280;47991;42.974;12.082;2024-03-17T11:57:42;98299.16;;;17.27;61.10
62038;BME280;47991;42.974;12.082;2024-03-17T12:00:23;98296.77;;;17.47;61.66
62038;BME280;47991;42.974;12.082;2024-03-17T12:02:51;98292.70;;;17.68;61.74
62038;BME280;47991;42.974;12.082;2024-03-17T12:05:18;98286.08;;;17.83;61.12
62038;BME280;47991;42.974;12.082;2024-03-17T12:07:48;98284.45;;;17.95;61.53
62038;BME280;47991;42.974;12.082;2024-03-17T12:10:15;98278.48;;;17.71;61.09
62038;BME280;47991;42.974;12.082;2024-03-17T12:12:47;98277.54;;;17.60;64.57
62038;BME280;47991;42.974;12.082;2024-03-17T12:15:19;98281.00;;;17.81;64.56
62038;BME280;47991;42.974;12.082;2024-03-17T12:17:46;98280.77;;;17.90;63.55
62038;BME280;47991;42.974;12.082;2024-03-17T12:20:21;98279.39;;;17.92;64.06
62038;BME280;47991;42.974;12.082;2024-03-17T12:22:48;98274.50;;;17.90;63.78
62038;BME280;47991;42.974;12.082;2024-03-17T12:25:19;98271.42;;;18.05;63.89
62038;BME280;47991;42.974;12.082;2024-03-17T12:27:47;98269.71;;;18.14;63.64
62038;BME280;47991;42.974;12.082;2024-03-17T12:30:16;98265.46;;;17.81;62.71
62038;BME280;47991;42.974;12.082;2024-03-17T12:32:45;98269.27;;;17.80;62.77
62038;BME280;47991;42.974;12.082;2024-03-17T12:35:14;98261.95;;;18.02;64.16
62038;BME280;47991;42.974;12.082;2024-03-17T12:37:44;98263.79;;;18.25;62.95
62038;BME280;47991;42.974;12.082;2024-03-17T12:40:19;98258.71;;;18.47;61.40
62038;BME280;47991;42.974;12.082;2024-03-17T12:42:48;98256.44;;;18.63;60.90
62038;BME280;47991;42.974;12.082;2024-03-17T12:45:20;98250.02;;;18.69;60.90
62038;BME280;47991;42.974;12.082;2024-03-17T12:47:49;98248.09;;;18.59;59.31
62038;BME280;47991;42.974;12.082;2024-03-17T12:50:17;98250.71;;;18.46;58.62
62038;BME280;47991;42.974;12.082;2024-03-17T12:52:54;98249.09;;;18.46;58.21
62038;BME280;47991;42.974;12.082;2024-03-17T12:55:23;98249.14;;;18.25;55.09
62038;BME280;47991;42.974;12.082;2024-03-17T12:58:10;98248.19;;;18.22;56.17
62038;BME280;47991;42.974;12.082;2024-03-17T13:01:03;98244.05;;;18.16;55.38
62038;BME280;47991;42.974;12.082;2024-03-17T13:03:35;98243.52;;;18.09;54.76
62038;BME280;47991;42.974;12.082;2024-03-17T13:06:04;98240.67;;;18.08;54.78
62038;BME280;47991;42.974;12.082;2024-03-17T13:08:35;98237.72;;;18.03;52.49
62038;BME280;47991;42.974;12.082;2024-03-17T13:11:03;98231.87;;;17.95;54.07
62038;BME280;47991;42.974;12.082;2024-03-17T13:13:36;98229.75;;;18.02;53.01
62038;BME280;47991;42.974;12.082;2024-03-17T13:16:03;98227.23;;;18.09;53.24
62038;BME280;47991;42.974;12.082;2024-03-17T13:18:30;98227.00;;;18.06;51.71
62038;BME280;47991;42.974;12.082;2024-03-17T13:20:57;98223.25;;;18.13;53.44
62038;BME280;47991;42.974;12.082;2024-03-17T13:23:25;98220.60;;;18.23;52.76
62038;BME280;47991;42.974;12.082;2024-03-17T13:25:52;98218.23;;;18.10;52.61
62038;BME280;47991;42.974;12.082;2024-03-17T13:28:21;98215.10;;;18.05;53.68
62038;BME280;47991;42.974;12.082;2024-03-17T13:30:48;98214.61;;;18.07;53.31
62038;BME280;47991;42.974;12.082;2024-03-17T13:33:15;98213.36;;;17.89;52.37